Time;durP1;ratioP1;P1;durP2;ratioP2;P2;SDS_P1;SDS_P2;PMS_P1;PMS_P2;Temp;Humidity;BMP_temperature;BMP_pressure;BME280_temperature;BME280_humidity;BME280_pressure;Samples;Min_cycle;Max_cycle;Signal;HPM_P1;HPM_P2
2023/03/11 00:01:26;;;;;;;10.52;1.60;;;3.30;99.90;;;;;;5059133;28;20032;-64
2023/03/11 00:03:52;;;;;;;11.48;1.42;;;3.30;99.90;;;;;;5042360;28;20043;-64
2023/03/11 00:06:18;;;;;;;9.82;2.35;;;3.40;99.90;;;;;;5058962;28;20040;-64
2023/03/11 00:08:43;;;;;;;7.68;2.20;;;3.30;99.90;;;;;;5042426;28;20308;-64
2023/03/11 00:11:09;;;;;;;8.38;2.72;;;3.30;99.90;;;;;;5042194;28;20431;-65
2023/03/11 00:13:35;;;;;;;8.05;2.90;;;3.40;99.90;;;;;;5025698;28;20119;-64
2023/03/11 00:16:01;;;;;;;8.32;1.98;;;3.30;99.90;;;;;;5058781;28;20128;-62
2023/03/11 00:18:30;;;;;;;9.15;2.50;;;3.20;99.90;;;;;;5042231;28;20033;-63
2023/03/11 00:20:58;;;;;;;10.93;2.28;;;3.00;99.90;;;;;;5059417;28;20041;-63
2023/03/11 00:23:25;;;;;;;8.45;1.92;;;2.80;99.90;;;;;;5058278;28;20017;-63
2023/03/11 00:25:51;;;;;;;7.15;2.40;;;2.80;99.90;;;;;;5059418;28;20033;-63
2023/03/11 00:28:17;;;;;;;6.05;2.08;;;2.60;99.90;;;;;;5041921;28;20376;-63
2023/03/11 00:30:45;;;;;;;11.80;2.50;;;2.50;99.90;;;;;;5058825;28;20041;-63
2023/03/11 00:33:14;;;;;;;6.15;2.40;;;2.50;99.90;;;;;;5058364;28;20112;-63
2023/03/11 00:35:40;;;;;;;7.50;1.92;;;2.50;99.90;;;;;;5059080;28;20035;-64
2023/03/11 00:38:11;;;;;;;5.63;1.55;;;2.50;99.90;;;;;;5041886;28;20036;-63
2023/03/11 00:40:38;;;;;;;10.25;1.90;;;2.60;99.90;;;;;;5059110;28;20060;-64
2023/03/11 00:43:04;;;;;;;6.88;2.03;;;2.60;99.90;;;;;;5058342;28;20352;-63
2023/03/11 00:45:30;;;;;;;8.95;2.13;;;2.50;99.90;;;;;;5058238;28;20033;-63
2023/03/11 00:47:57;;;;;;;5.43;1.73;;;2.50;99.90;;;;;;5058264;28;20305;-63
2023/03/11 00:50:26;;;;;;;9.05;1.73;;;2.50;99.90;;;;;;5058122;28;20032;-63
2023/03/11 00:52:52;;;;;;;7.68;1.85;;;2.70;99.90;;;;;;5058001;28;20033;-63
2023/03/11 00:55:25;;;;;;;6.05;1.95;;;2.50;99.90;;;;;;5057999;28;20045;-63
2023/03/11 00:57:53;;;;;;;8.80;2.85;;;2.40;99.90;;;;;;5041476;28;20420;-63
2023/03/11 01:00:22;;;;;;;7.97;2.25;;;2.50;99.90;;;;;;5057841;28;20552;-63
2023/03/11 01:02:48;;;;;;;6.15;2.15;;;2.50;99.90;;;;;;5058251;28;20067;-63
2023/03/11 01:05:14;;;;;;;5.45;2.53;;;2.70;99.90;;;;;;5041271;28;20108;-63
2023/03/11 01:07:40;;;;;;;10.65;2.53;;;2.80;99.90;;;;;;5057748;28;20460;-63
2023/03/11 01:10:08;;;;;;;7.55;2.35;;;2.80;99.90;;;;;;5041080;28;20331;-63
2023/03/11 01:12:34;;;;;;;5.93;2.50;;;2.90;99.90;;;;;;5057632;28;20078;-63
2023/03/11 01:15:02;;;;;;;8.88;2.30;;;3.00;99.90;;;;;;5041112;28;20033;-63
2023/03/11 01:17:28;;;;;;;9.63;2.30;;;3.10;99.90;;;;;;5057634;28;20037;-64
2023/03/11 01:19:54;;;;;;;5.82;2.42;;;3.10;99.90;;;;;;5040888;28;20029;-63
2023/03/11 01:22:21;;;;;;;9.95;2.78;;;3.10;99.90;;;;;;5058194;28;20033;-63
2023/03/11 01:24:46;;;;;;;7.30;2.25;;;3.00;99.90;;;;;;5040920;28;20026;-63
2023/03/11 01:27:12;;;;;;;7.45;2.50;;;3.10;99.90;;;;;;5024348;28;20029;-64
2023/03/11 01:29:38;;;;;;;7.78;2.60;;;3.00;99.90;;;;;;5057286;28;20036;-64
2023/03/11 01:32:05;;;;;;;9.23;3.38;;;2.90;99.90;;;;;;5057192;28;20059;-64
2023/03/11 01:34:34;;;;;;;7.32;2.90;;;3.00;99.90;;;;;;5040155;28;20063;-63
2023/03/11 01:37:02;;;;;;;10.68;3.00;;;3.10;99.90;;;;;;5057162;28;20025;-64
2023/03/11 01:39:28;;;;;;;9.43;3.17;;;3.10;99.90;;;;;;5057051;28;20028;-64
2023/03/11 01:41:55;;;;;;;7.18;2.90;;;3.20;99.90;;;;;;5057002;28;20297;-63
2023/03/11 01:44:21;;;;;;;11.30;3.42;;;3.30;99.90;;;;;;5040752;28;20063;-63
2023/03/11 01:46:53;;;;;;;10.82;3.10;;;3.40;99.90;;;;;;5040425;28;20020;-64
2023/03/11 01:49:26;;;;;;;8.07;2.92;;;3.40;99.90;;;;;;5056951;28;20286;-64
2023/03/11 01:51:59;;;;;;;6.18;2.60;;;3.30;99.90;;;;;;5057107;28;20098;-64
2023/03/11 01:54:29;;;;;;;7.38;2.75;;;3.10;99.90;;;;;;5057898;28;20032;-63
2023/03/11 01:56:56;;;;;;;12.18;3.13;;;3.10;99.90;;;;;;5057628;28;20349;-63
2023/03/11 01:59:35;;;;;;;11.80;3.20;;;3.10;99.90;;;;;;5007771;28;20032;-63
2023/03/11 02:02:18;;;;;;;8.13;3.05;;;3.00;99.90;;;;;;5040218;28;20087;-64
2023/03/11 02:04:44;;;;;;;7.00;2.42;;;3.10;99.90;;;;;;5040137;28;20029;-62
2023/03/11 02:07:12;;;;;;;8.70;2.78;;;3.20;99.90;;;;;;5056657;28;20066;-63
2023/03/11 02:09:38;;;;;;;5.45;2.17;;;3.20;99.90;;;;;;5056559;28;20063;-63
2023/03/11 02:12:05;;;;;;;11.43;2.35;;;3.00;99.90;;;;;;5056544;28;20025;-64
2023/03/11 02:14:31;;;;;;;6.72;2.63;;;3.10;99.90;;;;;;5056515;28;20041;-63
2023/03/11 02:16:58;;;;;;;6.75;2.50;;;3.20;99.90;;;;;;5040033;28;20060;-63
2023/03/11 02:19:45;;;;;;;8.25;2.50;;;3.20;99.90;;;;;;5023323;28;20304;-63
2023/03/11 02:22:12;;;;;;;7.93;2.70;;;3.20;99.90;;;;;;5057192;28;20428;-63
2023/03/11 02:24:52;;;;;;;9.38;2.45;;;3.20;99.90;;;;;;5039958;28;20155;-64
2023/03/11 02:27:21;;;;;;;8.43;2.67;;;3.20;99.90;;;;;;5056334;28;20024;-63
2023/03/11 02:29:50;;;;;;;5.47;1.95;;;3.20;99.90;;;;;;5056293;28;20029;-63
2023/03/11 02:32:18;;;;;;;7.70;2.45;;;3.20;99.90;;;;;;5056273;28;20029;-63
2023/03/11 02:34:44;;;;;;;8.85;2.40;;;3.10;99.90;;;;;;5056257;28;20412;-63
2023/03/11 02:37:13;;;;;;;6.57;2.22;;;3.00;99.90;;;;;;5039698;28;20060;-63
2023/03/11 02:39:46;;;;;;;8.55;2.20;;;3.10;99.90;;;;;;5040172;28;20095;-63
2023/03/11 02:42:29;;;;;;;7.90;2.20;;;3.10;99.90;;;;;;5056103;28;20419;-63
2023/03/11 02:45:00;;;;;;;9.17;2.67;;;3.20;99.90;;;;;;5056094;28;20021;-63
2023/03/11 02:47:28;;;;;;;6.85;2.40;;;3.20;99.90;;;;;;5040627;28;20586;-63
2023/03/11 02:49:56;;;;;;;6.75;2.13;;;3.20;99.90;;;;;;5056068;28;20040;-63
2023/03/11 02:52:24;;;;;;;4.85;1.80;;;3.20;99.90;;;;;;5055986;28;20060;-63
2023/03/11 02:54:50;;;;;;;6.63;2.03;;;3.30;99.90;;;;;;5055765;28;20060;-63
2023/03/11 02:57:16;;;;;;;7.47;1.88;;;3.20;99.90;;;;;;5057228;28;20037;-63
2023/03/11 02:59:42;;;;;;;5.65;1.95;;;3.10;99.90;;;;;;5022995;28;20313;-63
2023/03/11 03:02:08;;;;;;;3.75;1.90;;;3.00;99.90;;;;;;5057082;28;20033;-63
2023/03/11 03:04:34;;;;;;;8.15;2.60;;;3.10;99.90;;;;;;5023024;28;20041;-63
2023/03/11 03:07:00;;;;;;;7.78;3.03;;;3.10;99.90;;;;;;5056051;28;20028;-62
2023/03/11 03:09:26;;;;;;;5.43;2.33;;;3.10;99.90;;;;;;5056636;28;20029;-63
2023/03/11 03:11:51;;;;;;;6.55;2.78;;;3.00;99.90;;;;;;5056002;28;20055;-63
2023/03/11 03:14:17;;;;;;;8.48;2.75;;;3.00;99.90;;;;;;5055866;28;20029;-63
2023/03/11 03:16:43;;;;;;;9.98;2.80;;;2.90;99.90;;;;;;5039336;28;20040;-63
2023/03/11 03:19:10;;;;;;;7.57;2.40;;;2.80;99.90;;;;;;5039178;28;20025;-63
2023/03/11 03:21:35;;;;;;;8.23;2.05;;;2.90;99.90;;;;;;5055771;28;20304;-63
2023/03/11 03:24:02;;;;;;;7.22;2.25;;;2.80;99.90;;;;;;5055698;28;20025;-63
2023/03/11 03:26:27;;;;;;;5.75;2.05;;;2.80;99.90;;;;;;5055812;28;20299;-63
2023/03/11 03:28:53;;;;;;;8.00;2.25;;;2.80;99.90;;;;;;5055779;28;20037;-63
2023/03/11 03:31:19;;;;;;;6.60;2.10;;;2.80;99.90;;;;;;5055686;28;20033;-64
2023/03/11 03:33:45;;;;;;;5.22;2.30;;;2.80;99.90;;;;;;5055656;28;20052;-63
2023/03/11 03:36:13;;;;;;;5.75;2.45;;;2.70;99.90;;;;;;5055676;28;20407;-62
2023/03/11 03:38:55;;;;;;;7.75;2.53;;;2.70;99.90;;;;;;5040648;28;20453;-63
2023/03/11 03:41:21;;;;;;;9.75;3.13;;;2.60;99.90;;;;;;5038988;28;20033;-63
2023/03/11 03:43:48;;;;;;;12.85;2.60;;;2.50;99.90;;;;;;5056311;28;20345;-63
2023/03/11 03:46:14;;;;;;;6.30;2.40;;;2.40;99.90;;;;;;5039061;28;20033;-63
2023/03/11 03:48:45;;;;;;;7.07;2.72;;;2.40;99.90;;;;;;5055564;28;20099;-63
2023/03/11 03:51:12;;;;;;;6.57;2.60;;;2.30;99.90;;;;;;5055502;28;20033;-63
2023/03/11 03:53:45;;;;;;;5.43;2.47;;;2.30;99.90;;;;;;5055497;28;20030;-63
2023/03/11 03:56:15;;;;;;;10.10;3.20;;;2.30;99.90;;;;;;5038867;28;20094;-63
2023/03/11 03:58:42;;;;;;;8.55;2.67;;;2.30;99.90;;;;;;5058864;28;20029;-63
2023/03/11 04:01:09;;;;;;;6.97;2.67;;;2.20;99.90;;;;;;5042385;28;20021;-62
2023/03/11 04:03:36;;;;;;;6.20;2.60;;;2.20;99.90;;;;;;5059103;28;20021;-63
2023/03/11 04:06:26;;;;;;;16.15;3.75;;;2.10;99.90;;;;;;5043015;28;20393;-63
2023/03/11 04:08:59;;;;;;;6.65;2.00;;;2.10;99.90;;;;;;5043429;28;20033;-63
2023/03/11 04:11:28;;;;;;;10.23;3.30;;;2.10;99.90;;;;;;5026791;28;20051;-63
2023/03/11 04:13:55;;;;;;;7.45;2.92;;;2.10;99.90;;;;;;5042213;28;20037;-63
2023/03/11 04:16:23;;;;;;;9.70;3.50;;;2.10;99.90;;;;;;5058790;28;20037;-63
2023/03/11 04:18:51;;;;;;;8.60;3.60;;;2.00;99.90;;;;;;5042398;28;20044;-63
2023/03/11 04:21:18;;;;;;;8.88;3.33;;;1.90;99.90;;;;;;5058627;28;20037;-63
2023/03/11 04:23:45;;;;;;;10.18;3.22;;;1.80;99.90;;;;;;5025976;28;20119;-63
2023/03/11 04:26:13;;;;;;;6.28;2.92;;;1.70;99.90;;;;;;5042380;28;20419;-63
2023/03/11 04:28:40;;;;;;;7.53;3.30;;;1.70;99.90;;;;;;5041867;28;20401;-64
2023/03/11 04:31:06;;;;;;;10.65;3.50;;;1.70;99.90;;;;;;5041805;28;20175;-63
2023/03/11 04:33:33;;;;;;;9.55;3.50;;;1.70;99.90;;;;;;5041959;28;20033;-63
2023/03/11 04:36:03;;;;;;;6.50;3.05;;;1.70;99.90;;;;;;5041818;28;20253;-63
2023/03/11 04:38:29;;;;;;;10.57;3.47;;;1.70;99.90;;;;;;5026025;28;20032;-63
2023/03/11 04:41:02;;;;;;;9.02;3.17;;;1.70;99.90;;;;;;5058233;28;20408;-63
2023/03/11 04:43:28;;;;;;;6.72;3.50;;;1.70;99.90;;;;;;5058220;28;20120;-63
2023/03/11 04:45:54;;;;;;;8.50;3.28;;;1.60;99.90;;;;;;5041541;28;20033;-63
2023/03/11 04:48:20;;;;;;;8.43;3.08;;;1.60;99.90;;;;;;5058919;28;20067;-64
2023/03/11 04:50:47;;;;;;;6.38;3.10;;;1.50;99.90;;;;;;5041627;28;20060;-63
2023/03/11 04:53:14;;;;;;;9.43;3.30;;;1.50;99.90;;;;;;5058146;28;20044;-63
2023/03/11 04:55:40;;;;;;;5.93;3.20;;;1.60;99.90;;;;;;5058766;28;20056;-63
2023/03/11 04:58:07;;;;;;;8.25;3.55;;;1.60;99.90;;;;;;5058228;28;20404;-63
2023/03/11 05:00:34;;;;;;;7.60;3.00;;;1.60;99.90;;;;;;5041451;28;20104;-64
2023/03/11 05:03:04;;;;;;;11.57;4.22;;;1.60;99.90;;;;;;5041856;28;20025;-63
2023/03/11 05:05:30;;;;;;;8.50;3.38;;;1.70;99.90;;;;;;5057748;28;20043;-64
2023/03/11 05:07:56;;;;;;;10.52;3.70;;;1.60;99.90;;;;;;5057108;28;20038;-63
2023/03/11 05:10:22;;;;;;;10.10;3.13;;;1.70;99.90;;;;;;5040566;28;20306;-63
2023/03/11 05:12:52;;;;;;;5.68;2.90;;;1.70;99.90;;;;;;5041494;28;20346;-63
2023/03/11 05:15:19;;;;;;;8.68;3.22;;;1.70;99.90;;;;;;5057573;28;20413;-63
2023/03/11 05:17:46;;;;;;;10.45;2.72;;;1.60;99.90;;;;;;5057506;28;20274;-63
2023/03/11 05:20:13;;;;;;;8.57;3.33;;;1.60;99.90;;;;;;5057386;28;20099;-63
2023/03/11 05:22:39;;;;;;;9.10;3.30;;;1.60;99.90;;;;;;5058186;28;20373;-62
2023/03/11 05:25:05;;;;;;;6.80;2.72;;;1.50;99.90;;;;;;5057392;28;20052;-63
2023/03/11 05:27:31;;;;;;;10.25;3.10;;;1.50;99.90;;;;;;5057457;28;20100;-63
2023/03/11 05:29:57;;;;;;;8.45;3.10;;;1.50;99.90;;;;;;5058062;28;20028;-62
2023/03/11 05:32:25;;;;;;;10.80;3.13;;;1.50;99.90;;;;;;5057216;28;20052;-63
2023/03/11 05:34:52;;;;;;;5.50;3.10;;;1.40;99.90;;;;;;5057246;28;20044;-63
2023/03/11 05:37:18;;;;;;;9.70;3.35;;;1.40;99.90;;;;;;5024122;28;20032;-63
2023/03/11 05:39:46;;;;;;;7.55;3.53;;;1.40;99.90;;;;;;5040713;28;20415;-64
2023/03/11 05:42:13;;;;;;;7.55;3.30;;;1.40;99.90;;;;;;5040726;28;20036;-64
2023/03/11 05:44:40;;;;;;;12.02;3.55;;;1.40;99.90;;;;;;5057137;28;20060;-64
2023/03/11 05:47:06;;;;;;;8.55;3.67;;;1.40;99.90;;;;;;5056999;28;20029;-65
2023/03/11 05:49:33;;;;;;;15.82;3.90;;;1.40;99.90;;;;;;5056893;28;20311;-64
2023/03/11 05:51:59;;;;;;;8.25;3.47;;;1.40;99.90;;;;;;5040388;28;20116;-64
2023/03/11 05:54:27;;;;;;;8.88;3.90;;;1.30;99.90;;;;;;5040389;28;20049;-64
2023/03/11 05:56:54;;;;;;;7.30;3.60;;;1.40;99.90;;;;;;5040374;28;20040;-66
2023/03/11 05:59:20;;;;;;;8.10;3.67;;;1.40;99.90;;;;;;5023931;28;20186;-65
2023/03/11 06:01:52;;;;;;;10.25;4.55;;;1.40;99.90;;;;;;5025432;28;20083;-62
2023/03/11 06:04:18;;;;;;;11.93;5.13;;;1.40;99.90;;;;;;5056605;28;20070;-62
2023/03/11 06:06:44;;;;;;;10.20;6.03;;;1.40;99.90;;;;;;5040135;28;20029;-63
2023/03/11 06:09:13;;;;;;;13.00;6.10;;;1.40;99.90;;;;;;5039857;28;20116;-63
2023/03/11 06:11:41;;;;;;;12.35;6.65;;;1.30;99.90;;;;;;5039929;28;20063;-64
2023/03/11 06:14:12;;;;;;;12.65;7.40;;;1.30;99.90;;;;;;5039853;28;20094;-64
2023/03/11 06:16:38;;;;;;;10.88;6.88;;;1.20;99.90;;;;;;5056479;28;20025;-64
2023/03/11 06:19:04;;;;;;;15.02;6.68;;;1.30;99.90;;;;;;5056214;28;20028;-64
2023/03/11 06:21:34;;;;;;;16.27;6.90;;;1.20;99.90;;;;;;5055939;28;20033;-64
2023/03/11 06:24:00;;;;;;;11.90;6.70;;;1.20;99.90;;;;;;5039791;28;20036;-64
2023/03/11 06:26:28;;;;;;;9.98;5.57;;;1.30;99.90;;;;;;5039912;28;20029;-64
2023/03/11 06:28:54;;;;;;;12.23;6.47;;;1.30;99.90;;;;;;5039690;28;20036;-64
2023/03/11 06:31:24;;;;;;;12.73;6.30;;;1.40;99.90;;;;;;5056159;28;20104;-64
2023/03/11 06:33:50;;;;;;;9.02;6.28;;;1.40;99.90;;;;;;5056221;28;20071;-63
2023/03/11 06:36:18;;;;;;;14.80;6.47;;;1.40;99.90;;;;;;5056929;28;20086;-64
2023/03/11 06:38:45;;;;;;;10.68;7.20;;;1.40;99.90;;;;;;5056825;28;20083;-64
2023/03/11 06:41:12;;;;;;;12.20;7.20;;;1.30;99.90;;;;;;5039527;28;20123;-64
2023/03/11 06:43:38;;;;;;;12.57;6.93;;;1.30;99.90;;;;;;5039626;28;20392;-64
2023/03/11 06:46:14;;;;;;;11.27;6.97;;;1.30;99.90;;;;;;5039508;28;20392;-64
2023/03/11 06:48:40;;;;;;;10.63;6.53;;;1.40;99.90;;;;;;5056030;28;20029;-64
2023/03/11 06:51:06;;;;;;;12.55;6.95;;;1.40;99.90;;;;;;5055958;28;20025;-64
2023/03/11 06:53:33;;;;;;;12.52;7.00;;;1.50;99.90;;;;;;5056818;28;20029;-63
2023/03/11 06:56:04;;;;;;;10.82;6.40;;;1.50;99.90;;;;;;5039237;28;20084;-65
2023/03/11 06:58:34;;;;;;;12.10;6.70;;;1.60;99.90;;;;;;5056005;28;20036;-65
2023/03/11 07:01:03;;;;;;;13.05;7.00;;;1.60;99.90;;;;;;5039374;28;20049;-65
2023/03/11 07:03:30;;;;;;;11.15;7.03;;;1.60;99.90;;;;;;5056784;28;20316;-64
2023/03/11 07:05:56;;;;;;;13.68;6.72;;;1.80;99.90;;;;;;5056610;28;20027;-64
2023/03/11 07:08:22;;;;;;;11.10;6.55;;;1.90;99.90;;;;;;5055923;28;20110;-63
2023/03/11 07:11:09;;;;;;;11.38;6.68;;;2.00;99.90;;;;;;5056013;28;20112;-65
2023/03/11 07:13:35;;;;;;;10.82;6.65;;;2.00;99.90;;;;;;5056705;28;20025;-63
2023/03/11 07:16:04;;;;;;;10.18;6.50;;;2.00;99.90;;;;;;5055766;28;20304;-64
2023/03/11 07:18:31;;;;;;;10.70;6.72;;;2.10;99.90;;;;;;5055801;28;20036;-64
2023/03/11 07:20:56;;;;;;;11.30;7.15;;;2.20;99.90;;;;;;5055887;28;20033;-63
2023/03/11 07:23:22;;;;;;;13.43;8.32;;;2.10;99.90;;;;;;5056488;28;20025;-62
2023/03/11 07:25:50;;;;;;;12.95;7.70;;;2.20;99.90;;;;;;5039211;28;20031;-64
2023/03/11 07:28:16;;;;;;;14.32;8.20;;;2.20;99.90;;;;;;5056429;28;20033;-63
2023/03/11 07:30:45;;;;;;;14.93;8.07;;;2.30;99.90;;;;;;5055872;28;20037;-63
2023/03/11 07:33:11;;;;;;;14.65;8.88;;;2.30;99.90;;;;;;5059365;28;20059;-63
2023/03/11 07:35:37;;;;;;;14.38;8.07;;;2.30;99.90;;;;;;5060263;28;20028;-63
2023/03/11 07:38:03;;;;;;;13.00;8.13;;;2.30;99.90;;;;;;5060190;28;20025;-63
2023/03/11 07:40:29;;;;;;;17.02;7.47;;;2.40;99.90;;;;;;5059454;28;20120;-64
2023/03/11 07:42:54;;;;;;;9.90;6.95;;;2.50;99.90;;;;;;5059490;28;20351;-63
2023/03/11 07:45:20;;;;;;;14.73;6.88;;;2.60;99.90;;;;;;5059358;28;20033;-64
2023/03/11 07:47:46;;;;;;;10.10;6.07;;;2.70;99.90;;;;;;5042745;28;20044;-63
2023/03/11 07:50:12;;;;;;;12.63;6.75;;;2.80;99.90;;;;;;5059960;28;20128;-65
2023/03/11 07:52:38;;;;;;;14.00;7.15;;;2.90;99.90;;;;;;5059230;28;20340;-63
2023/03/11 07:55:05;;;;;;;10.50;6.40;;;2.90;99.90;;;;;;5059715;28;20110;-63
2023/03/11 07:57:31;;;;;;;12.35;7.13;;;3.00;99.90;;;;;;5042661;28;20044;-64
2023/03/11 07:59:56;;;;;;;11.13;5.85;;;3.10;99.90;;;;;;5025929;28;20028;-63
2023/03/11 08:02:22;;;;;;;12.98;6.20;;;3.00;99.90;;;;;;5042431;28;20409;-64
2023/03/11 08:04:48;;;;;;;10.32;6.47;;;3.00;99.90;;;;;;5060118;28;20032;-63
2023/03/11 08:07:14;;;;;;;11.10;6.28;;;3.00;99.90;;;;;;5058994;28;20029;-63
2023/03/11 08:09:39;;;;;;;12.80;5.85;;;3.10;99.90;;;;;;5059353;28;20033;-63
2023/03/11 08:12:06;;;;;;;7.90;4.97;;;3.10;99.90;;;;;;5058810;28;20370;-64
2023/03/11 08:14:32;;;;;;;7.75;5.25;;;3.20;99.90;;;;;;5058734;28;20028;-64
2023/03/11 08:16:57;;;;;;;12.13;4.97;;;3.30;99.90;;;;;;5059541;28;20040;-64
2023/03/11 08:19:23;;;;;;;13.07;5.05;;;3.40;99.90;;;;;;5059398;28;20064;-63
2023/03/11 08:21:49;;;;;;;8.13;4.60;;;3.40;99.90;;;;;;5059399;28;20392;-64
2023/03/11 08:24:15;;;;;;;7.57;4.35;;;3.50;99.90;;;;;;5042053;28;20214;-65
2023/03/11 08:26:41;;;;;;;9.48;3.97;;;3.60;99.90;;;;;;5042031;28;20051;-64
2023/03/11 08:29:07;;;;;;;8.27;3.83;;;3.70;99.90;;;;;;5058532;28;20355;-64
2023/03/11 08:31:34;;;;;;;5.30;2.97;;;3.90;99.90;;;;;;5058611;28;20068;-64
2023/03/11 08:34:03;;;;;;;6.55;3.05;;;4.30;99.90;;;;;;5041815;28;20033;-64
2023/03/11 08:36:29;;;;;;;5.68;3.03;;;4.60;99.90;;;;;;5058419;28;20064;-66
2023/03/11 08:38:55;;;;;;;8.15;2.17;;;4.80;99.90;;;;;;5058168;28;20041;-65
2023/03/11 08:41:22;;;;;;;5.63;1.40;;;4.90;99.90;;;;;;5058209;28;20486;-65
2023/03/11 08:43:48;;;;;;;4.65;1.20;;;5.00;99.90;;;;;;5058849;28;20382;-64
2023/03/11 08:46:24;;;;;;;5.72;1.27;;;5.10;99.90;;;;;;5058916;28;20025;-64
2023/03/11 08:48:51;;;;;;;5.45;1.33;;;5.00;99.90;;;;;;5058973;28;20102;-64
2023/03/11 08:51:17;;;;;;;5.65;1.70;;;4.90;99.90;;;;;;5041421;28;20033;-64
2023/03/11 08:53:43;;;;;;;5.78;1.85;;;4.90;99.90;;;;;;5041462;28;20040;-64
2023/03/11 08:56:09;;;;;;;3.47;1.40;;;4.80;99.90;;;;;;5008492;28;20057;-64
2023/03/11 08:58:35;;;;;;;4.72;1.38;;;4.70;99.90;;;;;;5058083;28;20036;-64
2023/03/11 09:01:01;;;;;;;6.72;1.70;;;4.70;99.90;;;;;;5058570;28;20040;-65
2023/03/11 09:03:29;;;;;;;4.47;1.77;;;4.90;99.90;;;;;;5041602;28;20312;-65
2023/03/11 09:05:57;;;;;;;5.65;1.65;;;5.10;99.90;;;;;;5041705;28;20064;-65
2023/03/11 09:08:23;;;;;;;6.22;1.20;;;5.10;99.90;;;;;;5058636;28;20029;-65
2023/03/11 09:10:49;;;;;;;7.30;1.48;;;5.20;99.90;;;;;;5057772;28;20112;-65
2023/03/11 09:13:14;;;;;;;4.78;1.30;;;5.20;99.90;;;;;;5041408;28;20041;-65
2023/03/11 09:15:40;;;;;;;6.07;1.80;;;5.50;99.90;;;;;;5057859;28;20094;-64
2023/03/11 09:18:07;;;;;;;1.27;0.57;;;5.60;99.90;;;;;;5058381;28;20075;-66
2023/03/11 09:20:37;;;;;;;1.48;0.50;;;5.80;99.90;;;;;;5057526;28;20390;-64
2023/03/11 09:23:03;;;;;;;4.45;0.60;;;6.00;99.90;;;;;;5058832;28;20033;-63
2023/03/11 09:25:29;;;;;;;4.95;0.80;;;6.20;99.90;;;;;;5024292;28;20040;-64
2023/03/11 09:27:54;;;;;;;5.45;0.77;;;6.50;99.90;;;;;;5057535;28;20331;-65
2023/03/11 09:30:20;;;;;;;4.75;0.80;;;6.70;99.90;;;;;;5008022;28;20167;-64
2023/03/11 09:32:46;;;;;;;4.97;0.75;;;6.90;99.90;;;;;;5057282;28;20115;-63
2023/03/11 09:35:12;;;;;;;2.88;0.57;;;6.90;99.90;;;;;;5040555;28;20041;-63
2023/03/11 09:37:38;;;;;;;2.00;0.77;;;6.90;99.90;;;;;;5007559;28;20102;-64
2023/03/11 09:40:04;;;;;;;3.92;0.80;;;6.70;99.90;;;;;;5057763;28;20415;-63
2023/03/11 09:42:56;;;;;;;3.85;0.60;;;6.60;99.90;;;;;;5057851;28;20033;-64
2023/03/11 09:45:30;;;;;;;3.30;0.70;;;7.10;99.90;;;;;;5057624;28;20336;-64
2023/03/11 09:48:34;;;;;;;2.08;0.50;;;7.60;99.90;;;;;;5040349;28;20423;-64
2023/03/11 09:51:20;;;;;;;3.08;0.60;;;7.90;99.90;;;;;;5056821;28;20407;-66
2023/03/11 09:53:53;;;;;;;1.85;0.60;;;8.30;99.90;;;;;;5056859;28;20045;-67
2023/03/11 09:56:21;;;;;;;3.08;0.80;;;8.40;99.90;;;;;;5056979;28;20106;-66
2023/03/11 09:58:54;;;;;;;2.35;0.80;;;8.40;99.90;;;;;;5056772;28;20036;-66
2023/03/11 10:01:29;;;;;;;6.45;0.90;;;8.60;99.90;;;;;;5056895;28;20029;-66
2023/03/11 10:04:00;;;;;;;3.38;0.65;;;8.50;99.90;;;;;;5040217;28;20396;-66
2023/03/11 10:06:28;;;;;;;1.58;0.57;;;8.40;99.90;;;;;;5057407;28;20025;-66
2023/03/11 10:09:31;;;;;;;2.47;0.70;;;8.10;99.90;;;;;;5057249;28;20139;-66
2023/03/11 10:12:19;;;;;;;4.95;0.80;;;7.80;99.90;;;;;;5056607;28;20075;-66
2023/03/11 10:14:54;;;;;;;5.53;1.33;;;8.10;99.90;;;;;;5057333;28;20032;-66
2023/03/11 10:17:39;;;;;;;5.95;0.90;;;8.50;99.90;;;;;;5056343;28;20389;-67
2023/03/11 10:20:14;;;;;;;4.90;0.80;;;9.10;99.90;;;;;;5057463;28;20078;-67
2023/03/11 10:23:05;;;;;;;2.67;0.70;;;9.60;99.90;;;;;;5039924;28;20028;-67
2023/03/11 10:25:48;;;;;;;5.43;0.80;;;9.70;99.90;;;;;;5056550;28;20048;-67
2023/03/11 10:28:19;;;;;;;3.53;0.80;;;9.80;99.90;;;;;;5057056;28;20060;-67
2023/03/11 10:30:54;;;;;;;2.65;0.80;;;9.80;99.90;;;;;;5057222;28;20036;-67
2023/03/11 10:33:34;;;;;;;2.90;0.82;;;10.10;99.90;;;;;;5056346;28;20388;-66
2023/03/11 10:36:09;;;;;;;3.78;0.90;;;9.90;99.90;;;;;;5056978;28;20035;-66
2023/03/11 10:38:41;;;;;;;3.60;1.10;;;10.20;99.90;;;;;;5057006;28;20029;-66
2023/03/11 10:41:21;;;;;;;7.53;0.70;;;10.00;99.90;;;;;;5056324;28;20029;-66
2023/03/11 10:44:06;;;;;;;1.63;0.63;;;10.40;99.90;;;;;;5057185;28;20021;-67
2023/03/11 10:46:32;;;;;;;5.32;0.90;;;11.20;99.90;;;;;;5057263;28;20336;-66
2023/03/11 10:48:58;;;;;;;2.40;0.80;;;11.60;99.90;;;;;;5056261;28;20028;-65
2023/03/11 10:51:33;;;;;;;4.53;1.00;;;12.10;99.90;;;;;;5023114;28;20033;-67
2023/03/11 10:54:01;;;;;;;4.07;0.88;;;12.80;99.90;;;;;;5056815;28;20083;-66
2023/03/11 10:56:35;;;;;;;1.95;0.60;;;12.90;99.90;;;;;;5056659;28;20052;-66
2023/03/11 10:59:04;;;;;;;5.78;1.00;;;12.60;99.90;;;;;;5056083;28;20300;-67
2023/03/11 11:01:30;;;;;;;5.63;1.00;;;12.10;99.90;;;;;;5056031;28;20112;-66
2023/03/11 11:03:59;;;;;;;6.15;0.80;;;12.00;99.90;;;;;;5055937;28;20296;-66
2023/03/11 11:06:35;;;;;;;5.28;0.98;;;10.20;99.90;;;;;;5056076;28;20033;-66
2023/03/11 11:09:16;;;;;;;3.53;0.80;;;8.80;99.90;;;;;;5027111;28;20060;-65
2023/03/11 11:11:59;;;;;;;5.50;1.20;;;8.40;99.90;;;;;;5059969;28;20041;-65
2023/03/11 11:14:25;;;;;;;;;;;8.90;99.90;;;;;;5060309;28;20033;-67
2023/03/11 11:16:51;;;;;;;5.68;0.80;;;9.60;99.90;;;;;;5059907;28;19909;-66
2023/03/11 11:19:17;;;;;;;3.90;0.70;;;10.50;99.90;;;;;;5060287;28;20119;-66
2023/03/11 11:21:51;;;;;;;4.07;0.70;;;10.10;99.90;;;;;;5043282;28;20033;-67
2023/03/11 11:24:25;;;;;;;2.15;0.65;;;10.20;99.90;;;;;;5059797;28;20289;-67
2023/03/11 11:27:22;;;;;;;2.83;0.70;;;11.60;99.90;;;;;;5059638;28;20037;-64
2023/03/11 11:30:08;;;;;;;3.85;0.70;;;12.50;99.90;;;;;;5060007;28;20041;-65
2023/03/11 11:32:36;;;;;;;4.60;0.70;;;11.30;99.90;;;;;;5042642;28;20044;-63
2023/03/11 11:35:11;;;;;;;2.50;0.88;;;11.30;99.90;;;;;;5042769;28;20106;-63
2023/03/11 11:37:41;;;;;;;2.45;0.82;;;10.80;99.90;;;;;;5060176;28;20100;-63
2023/03/11 11:40:13;;;;;;;4.88;0.82;;;10.40;99.90;;;;;;5060074;28;20033;-64
2023/03/11 11:42:52;;;;;;;2.53;0.93;;;10.50;99.90;;;;;;5059993;28;20036;-64
2023/03/11 11:45:37;;;;;;;1.17;0.60;;;11.70;99.90;;;;;;5059431;28;20063;-64
2023/03/11 11:48:24;;;;;;;8.30;1.10;;;12.80;99.90;;;;;;5060076;28;20331;-65
2023/03/11 11:51:07;;;;;;;2.55;0.90;;;13.60;99.90;;;;;;5042556;28;20029;-63
2023/03/11 11:53:59;;;;;;;3.10;0.90;;;14.10;99.90;;;;;;5059886;28;20037;-62
2023/03/11 11:56:25;;;;;;;4.82;1.02;;;14.50;99.90;;;;;;5059355;28;20040;-63
2023/03/11 11:58:53;;;;;;;2.00;0.60;;;15.20;99.90;;;;;;5058952;28;20305;-64
2023/03/11 12:01:33;;;;;;;2.85;0.90;;;16.10;99.90;;;;;;5058980;28;20028;-64
2023/03/11 12:04:10;;;;;;;2.30;1.13;;;16.70;98.70;;;;;;5059040;28;20024;-63
2023/03/11 12:07:10;;;;;;;3.53;1.00;;;15.40;93.50;;;;;;5042269;28;20057;-63
2023/03/11 12:09:46;;;;;;;1.55;0.68;;;16.60;94.50;;;;;;5059250;28;20118;-63
2023/03/11 12:12:20;;;;;;;3.15;0.90;;;17.70;91.30;;;;;;5058761;28;20365;-64
2023/03/11 12:14:54;;;;;;;2.42;0.70;;;18.00;88.80;;;;;;5058718;28;20407;-62
2023/03/11 12:17:22;;;;;;;3.85;0.70;;;17.10;83.40;;;;;;5058886;28;20285;-65
2023/03/11 12:20:04;;;;;;;4.35;0.90;;;16.70;85.30;;;;;;5059243;28;20102;-63
2023/03/11 12:22:47;;;;;;;1.92;0.57;;;17.00;82.50;;;;;;5058946;28;20415;-62
2023/03/11 12:25:21;;;;;;;;;;;17.20;81.00;;;;;;5059103;28;20328;-62
2023/03/11 12:28:05;;;;;;;3.85;1.10;;;16.00;80.90;;;;;;5041954;28;19936;-63
2023/03/11 12:30:43;;;;;;;4.22;0.93;;;14.40;84.70;;;;;;5058537;28;20047;-63
2023/03/11 12:33:26;;;;;;;3.08;0.90;;;14.20;87.30;;;;;;5059224;28;20106;-63
2023/03/11 12:35:55;;;;;;;3.20;0.73;;;14.00;87.20;;;;;;5058313;28;20129;-62
2023/03/11 12:38:39;;;;;;;3.65;0.90;;;12.60;90.20;;;;;;5059049;28;20043;-62
2023/03/11 12:41:06;;;;;;;4.28;1.02;;;13.00;91.70;;;;;;5058197;28;20044;-64
2023/03/11 12:43:32;;;;;;;1.75;0.70;;;13.30;92.70;;;;;;5058315;28;20072;-64
2023/03/11 12:46:06;;;;;;;2.28;0.90;;;13.90;93.30;;;;;;5058213;28;20126;-62
2023/03/11 12:49:05;;;;;;;6.30;1.10;;;12.70;93.70;;;;;;5058945;28;20159;-63
2023/03/11 12:51:33;;;;;;;3.65;1.00;;;11.70;96.30;;;;;;5058745;28;20292;-61
2023/03/11 12:54:32;;;;;;;1.92;0.80;;;10.60;98.20;;;;;;5058648;28;20024;-63
2023/03/11 12:57:29;;;;;;;3.28;1.10;;;10.80;98.00;;;;;;5058686;28;20064;-64
2023/03/11 13:00:06;;;;;;;7.57;1.05;;;12.70;98.20;;;;;;5050344;28;20319;-64
2023/03/11 13:03:05;;;;;;;2.72;0.90;;;12.70;96.40;;;;;;5058161;28;20090;-62
2023/03/11 13:05:41;;;;;;;5.38;1.20;;;12.90;95.10;;;;;;5057975;28;20039;-63
2023/03/11 13:08:21;;;;;;;6.40;1.27;;;12.80;95.50;;;;;;5058526;28;20071;-62